Eighty Four, Pennsylvania
Current Conditions -  °F | °C
As of 3:35 PM on Thursday 23 Oct 2014 (Local Time) from KAFJ Reporting Station
Broken Clouds Broken Clouds  
Wind Chill: 57°   Ceiling: 3800
Heat Index: 57°   Visibility: 10mi
Dew Point: 43°   Wind: 10mph
Humidity: 59%   Direction: 310°NW
Pressure: 30.09"   Gusts: 17mph
Location:  40.18°N, 80.13°W
Report Text: KAFJ 231935Z AUTO 31009G15KT 10SM BKN038 BKN046 14/06 A3009 RMK AO1
Loading
Personal Weather Stations






























Interactive Weather Map New forecast layout! Learn more

10-Day Weather Forecast

Advertisements
Track Severe Weather on mobile